createdAt,value
2023-02-28T00:01:31.134Z,0.05
2023-02-28T00:04:00.492Z,-0.04
2023-02-28T00:06:28.982Z,-0.07
2023-02-28T00:08:57.058Z,-0.04
2023-02-28T00:11:24.849Z,0.00
2023-02-28T00:13:52.827Z,-0.17
2023-02-28T00:16:22.662Z,-0.03
2023-02-28T00:18:50.980Z,-0.16
2023-02-28T00:21:22.143Z,-0.07
2023-02-28T00:23:50.358Z,-0.14
2023-02-28T00:26:20.046Z,-0.08
2023-02-28T00:28:49.426Z,-0.15
2023-02-28T00:31:17.294Z,-0.09
2023-02-28T00:33:45.059Z,-0.08
2023-02-28T00:36:13.616Z,-0.13
2023-02-28T00:38:43.370Z,-0.03
2023-02-28T00:41:11.673Z,-0.08
2023-02-28T00:43:40.880Z,-0.09
2023-02-28T00:46:09.790Z,-0.11
2023-02-28T00:48:37.807Z,-0.09
2023-02-28T00:51:06.863Z,-0.07
2023-02-28T00:53:35.512Z,-0.09
2023-02-28T00:56:04.904Z,0.04
2023-02-28T00:58:33.799Z,0.02
2023-02-28T01:01:01.810Z,-0.19
2023-02-28T01:03:29.695Z,-0.17
2023-02-28T01:05:57.459Z,-0.25
2023-02-28T01:08:25.374Z,-0.04
2023-02-28T01:10:53.169Z,-0.03
2023-02-28T01:13:24.030Z,-0.01
2023-02-28T01:15:53.973Z,-0.13
2023-02-28T01:18:22.124Z,-0.02
2023-02-28T01:20:50.057Z,0.05
2023-02-28T01:23:18.102Z,0.05
2023-02-28T01:25:45.920Z,0.07
2023-02-28T01:28:13.833Z,0.07
2023-02-28T01:30:43.266Z,0.03
2023-02-28T01:33:11.018Z,-0.02
2023-02-28T01:35:38.902Z,-0.01
2023-02-28T01:38:21.009Z,0.03
2023-02-28T01:40:50.278Z,0.06
2023-02-28T01:43:23.444Z,-0.01
2023-02-28T01:45:53.234Z,0.06
2023-02-28T01:48:23.034Z,0.08
2023-02-28T01:50:51.565Z,0.00
2023-02-28T01:53:23.743Z,-0.13
2023-02-28T01:55:54.519Z,0.07
2023-02-28T01:58:22.614Z,-0.04
2023-02-28T02:00:52.385Z,-0.02
2023-02-28T02:03:22.435Z,-0.01
2023-02-28T02:05:50.271Z,0.02
2023-02-28T02:08:21.638Z,0.02
2023-02-28T02:10:54.365Z,0.07
2023-02-28T02:13:39.441Z,0.14
2023-02-28T02:16:20.354Z,-0.03
2023-02-28T02:18:53.054Z,-0.15
2023-02-28T02:21:46.608Z,0.13
2023-02-28T02:25:05.892Z,0.10
2023-02-28T02:27:57.632Z,0.07
2023-02-28T02:30:54.146Z,0.06
2023-02-28T02:33:53.174Z,0.08
2023-02-28T02:36:26.501Z,0.00
2023-02-28T02:39:02.100Z,0.02
2023-02-28T02:41:36.764Z,-0.04
2023-02-28T02:44:12.333Z,-0.13
2023-02-28T02:46:43.749Z,-0.08
2023-02-28T02:49:17.642Z,-0.01
2023-02-28T02:51:49.689Z,-0.09
2023-02-28T02:54:19.421Z,-0.02
2023-02-28T02:56:50.273Z,-0.25
2023-02-28T02:59:22.787Z,-0.09
2023-02-28T03:01:53.875Z,-0.10
2023-02-28T03:04:24.015Z,-0.03
2023-02-28T03:06:55.682Z,-0.06
2023-02-28T03:09:23.513Z,-0.11
2023-02-28T03:11:53.164Z,0.02
2023-02-28T03:14:34.091Z,-0.08
2023-02-28T03:17:16.254Z,0.00
2023-02-28T03:19:49.393Z,-0.09
2023-02-28T03:22:31.251Z,0.05
2023-02-28T03:25:06.714Z,0.05
2023-02-28T03:27:42.466Z,0.12
2023-02-28T03:30:16.940Z,-0.08
2023-02-28T03:32:53.179Z,-0.04
2023-02-28T03:35:24.987Z,0.06
2023-02-28T03:37:57.013Z,-0.10
2023-02-28T03:40:26.967Z,-0.06
2023-02-28T03:43:00.630Z,-0.11
2023-02-28T03:45:33.307Z,0.06
2023-02-28T03:48:07.352Z,-0.05
2023-02-28T03:50:39.273Z,-0.21
2023-02-28T03:53:12.456Z,-0.06
2023-02-28T03:55:44.644Z,-0.03
2023-02-28T03:58:20.029Z,-0.23
2023-02-28T04:00:52.070Z,-0.32
2023-02-28T04:03:19.848Z,-0.25
2023-02-28T04:05:53.385Z,-0.26
2023-02-28T04:08:23.888Z,-0.09
2023-02-28T04:10:58.365Z,-0.16
2023-02-28T04:13:26.092Z,-0.23
2023-02-28T04:15:53.958Z,-0.08
2023-02-28T04:18:21.758Z,-0.06
2023-02-28T04:20:49.806Z,-0.15
2023-02-28T04:23:17.609Z,-0.16
2023-02-28T04:25:46.824Z,-0.17
2023-02-28T04:28:14.620Z,-0.03
2023-02-28T04:30:42.417Z,-0.10
2023-02-28T04:33:10.169Z,-0.11
2023-02-28T04:35:37.913Z,-0.10
2023-02-28T04:38:05.678Z,-0.17
2023-02-28T04:40:33.451Z,-0.32
2023-02-28T04:43:02.538Z,-0.21
2023-02-28T04:45:33.454Z,-0.28
2023-02-28T04:48:01.176Z,-0.16
2023-02-28T04:50:28.867Z,-0.14
2023-02-28T04:52:56.681Z,-0.11
2023-02-28T04:55:24.385Z,-0.17
2023-02-28T04:57:52.214Z,-0.27
2023-02-28T05:00:22.214Z,-0.14
2023-02-28T05:02:49.911Z,-0.07
2023-02-28T05:05:19.068Z,-0.09
2023-02-28T05:07:47.135Z,-0.10
2023-02-28T05:10:14.914Z,-0.22
2023-02-28T05:12:42.738Z,-0.12
2023-02-28T05:15:15.297Z,-0.04
2023-02-28T05:17:44.880Z,-0.09
2023-02-28T05:20:16.006Z,-0.06
2023-02-28T05:22:45.119Z,-0.21
2023-02-28T05:25:15.956Z,-0.23
2023-02-28T05:27:43.884Z,-0.20
2023-02-28T05:30:13.352Z,-0.24
2023-02-28T05:32:43.748Z,-0.17
2023-02-28T05:35:13.635Z,-0.13
2023-02-28T05:37:41.899Z,-0.17
2023-02-28T05:40:12.106Z,-0.06
2023-02-28T05:42:40.320Z,0.00
2023-02-28T05:45:10.080Z,-0.01
2023-02-28T05:47:37.906Z,-0.13
2023-02-28T05:50:07.001Z,-0.03
2023-02-28T05:52:36.470Z,-0.22
2023-02-28T05:55:04.301Z,-0.12
2023-02-28T05:57:32.263Z,-0.23
2023-02-28T05:59:59.987Z,-0.31
2023-02-28T06:02:27.725Z,-0.22
2023-02-28T06:04:55.614Z,-0.27
2023-02-28T06:07:24.245Z,-0.20
2023-02-28T06:09:53.694Z,-0.21
2023-02-28T06:12:21.397Z,-0.28
2023-02-28T06:14:49.206Z,-0.28
2023-02-28T06:17:16.983Z,-0.22
2023-02-28T06:19:44.730Z,-0.28
2023-02-28T06:22:12.504Z,-0.32
2023-02-28T06:24:40.295Z,-0.18
2023-02-28T06:27:09.649Z,-0.29
2023-02-28T06:29:40.758Z,-0.20
2023-02-28T06:32:08.686Z,-0.22
2023-02-28T06:34:36.464Z,-0.16
2023-02-28T06:37:04.763Z,-0.17
2023-02-28T06:39:32.952Z,-0.20
2023-02-28T06:42:00.893Z,-0.12
2023-02-28T06:44:36.433Z,-0.12
2023-02-28T06:47:05.320Z,-0.12
2023-02-28T06:49:33.720Z,-0.18
2023-02-28T06:52:01.654Z,-0.13
2023-02-28T06:54:29.605Z,-0.20
2023-02-28T06:56:57.365Z,-0.12
2023-02-28T06:59:25.114Z,-0.23
2023-02-28T07:01:54.533Z,-0.15
2023-02-28T07:04:22.354Z,-0.17
2023-02-28T07:06:50.152Z,-0.02
2023-02-28T07:09:18.087Z,-0.29
2023-02-28T07:11:45.900Z,-0.22
2023-02-28T07:14:13.686Z,-0.19
2023-02-28T07:16:41.405Z,-0.02
2023-02-28T07:19:10.512Z,0.00
2023-02-28T07:21:38.239Z,0.11
2023-02-28T07:24:06.801Z,0.24
2023-02-28T07:26:35.209Z,0.04
2023-02-28T07:29:03.136Z,0.13
2023-02-28T07:31:31.201Z,0.21
2023-02-28T07:33:59.456Z,0.36
2023-02-28T07:36:28.585Z,0.48
2023-02-28T07:38:56.413Z,0.51
2023-02-28T07:41:28.777Z,0.41
2023-02-28T07:43:58.216Z,0.29
2023-02-28T07:46:26.569Z,0.38
2023-02-28T07:48:56.056Z,0.21
2023-02-28T07:51:24.635Z,0.20
2023-02-28T07:53:53.821Z,0.25
2023-02-28T07:56:21.661Z,0.24
2023-02-28T07:58:49.506Z,0.10
2023-02-28T08:01:18.343Z,0.24
2023-02-28T08:03:46.134Z,0.32
2023-02-28T08:06:20.161Z,0.15
2023-02-28T08:08:48.152Z,0.32
2023-02-28T08:11:18.474Z,0.40
2023-02-28T08:13:46.554Z,0.49
2023-02-28T08:16:18.406Z,0.46
2023-02-28T08:18:46.453Z,0.47
2023-02-28T08:21:14.318Z,0.57
2023-02-28T08:23:42.101Z,0.55
2023-02-28T08:26:09.874Z,0.27
2023-02-28T08:28:39.030Z,0.60
2023-02-28T08:31:10.120Z,0.62
2023-02-28T08:33:39.967Z,0.76
2023-02-28T08:36:09.611Z,0.64
2023-02-28T08:38:37.620Z,0.65
2023-02-28T08:41:08.526Z,0.41
2023-02-28T08:43:38.456Z,0.62
2023-02-28T08:46:07.202Z,0.49
2023-02-28T08:48:38.727Z,0.65
2023-02-28T08:51:09.006Z,0.79
2023-02-28T08:53:37.452Z,0.66
2023-02-28T08:56:07.702Z,0.79
2023-02-28T08:58:36.555Z,0.85
2023-02-28T09:01:12.037Z,0.92
2023-02-28T09:03:41.853Z,0.84
2023-02-28T09:06:10.697Z,0.82
2023-02-28T09:08:39.486Z,0.42
2023-02-28T09:11:07.613Z,0.75
2023-02-28T09:13:35.402Z,0.57
2023-02-28T09:16:05.530Z,1.06
2023-02-28T09:18:37.091Z,1.07
2023-02-28T09:21:06.390Z,0.95
2023-02-28T09:23:34.145Z,1.06
2023-02-28T09:26:01.931Z,0.88
2023-02-28T09:28:29.736Z,1.17
2023-02-28T09:30:58.597Z,0.91
2023-02-28T09:33:27.532Z,0.74
2023-02-28T09:36:02.517Z,1.10
2023-02-28T09:38:31.204Z,1.28
2023-02-28T09:41:00.531Z,1.47
2023-02-28T09:43:31.147Z,1.40
2023-02-28T09:46:03.330Z,1.48
2023-02-28T09:48:40.048Z,1.63
2023-02-28T09:51:17.919Z,1.38
2023-02-28T09:53:47.880Z,0.98
2023-02-28T09:56:27.449Z,1.14
2023-02-28T09:58:59.209Z,1.19
2023-02-28T10:01:33.859Z,1.23
2023-02-28T10:04:10.257Z,1.25
2023-02-28T10:06:46.682Z,1.45
2023-02-28T10:09:21.705Z,1.26
2023-02-28T10:11:53.701Z,1.28
2023-02-28T10:14:25.033Z,1.52
2023-02-28T10:16:57.257Z,1.57
2023-02-28T10:19:33.665Z,1.37
2023-02-28T10:22:06.888Z,1.57
2023-02-28T10:24:39.991Z,1.95
2023-02-28T10:27:16.679Z,1.86
2023-02-28T10:29:47.237Z,1.78
2023-02-28T10:32:19.252Z,1.82
2023-02-28T10:34:47.647Z,1.95
2023-02-28T10:37:16.901Z,1.79
2023-02-28T10:39:47.418Z,1.73
2023-02-28T10:42:26.618Z,2.04
2023-02-28T10:45:09.042Z,2.01
2023-02-28T10:47:40.695Z,1.82
2023-02-28T10:50:28.227Z,1.78
2023-02-28T10:53:07.304Z,2.04
2023-02-28T10:55:35.239Z,2.03
2023-02-28T10:58:03.030Z,2.31
2023-02-28T11:00:35.854Z,1.99
2023-02-28T11:03:03.562Z,1.51
2023-02-28T11:05:33.405Z,1.97
2023-02-28T11:08:12.280Z,2.08
2023-02-28T11:10:40.784Z,2.19
2023-02-28T11:13:08.561Z,1.64
2023-02-28T11:15:38.029Z,1.80
2023-02-28T11:18:23.623Z,2.24
2023-02-28T11:20:52.997Z,2.45
2023-02-28T11:23:23.108Z,2.16
2023-02-28T11:25:55.645Z,2.58
2023-02-28T11:28:29.414Z,1.87
2023-02-28T11:31:07.195Z,2.14
2023-02-28T11:33:43.000Z,2.25
2023-02-28T11:36:14.789Z,1.89
2023-02-28T11:38:44.580Z,1.82
2023-02-28T11:41:26.717Z,1.97
2023-02-28T11:43:58.800Z,1.89
2023-02-28T11:46:36.210Z,1.87
2023-02-28T11:49:18.037Z,1.89
2023-02-28T11:51:54.337Z,2.24
2023-02-28T11:54:56.687Z,2.35
2023-02-28T11:57:52.539Z,2.26
2023-02-28T12:00:45.473Z,2.15
2023-02-28T12:03:29.843Z,2.45
2023-02-28T12:06:06.155Z,2.87
2023-02-28T12:08:51.503Z,2.99
2023-02-28T12:11:35.824Z,2.92
2023-02-28T12:14:27.928Z,2.85
2023-02-28T12:17:08.160Z,2.56
2023-02-28T12:19:45.364Z,2.68
2023-02-28T12:22:36.610Z,2.37
2023-02-28T12:25:26.390Z,1.95
2023-02-28T12:27:55.761Z,2.30
2023-02-28T12:30:27.403Z,2.20
2023-02-28T12:32:58.947Z,1.69
2023-02-28T12:35:34.206Z,1.81
2023-02-28T12:38:07.999Z,1.96
2023-02-28T12:40:47.217Z,1.77
2023-02-28T12:43:20.622Z,1.98
2023-02-28T12:45:52.402Z,2.17
2023-02-28T12:48:24.001Z,2.10
2023-02-28T12:50:52.483Z,2.25
2023-02-28T12:53:29.872Z,2.14
2023-02-28T12:56:09.380Z,2.04
2023-02-28T12:58:41.901Z,1.65
2023-02-28T13:01:37.853Z,1.91
2023-02-28T13:04:44.799Z,1.44
2023-02-28T13:07:43.790Z,1.85
2023-02-28T13:10:12.796Z,1.76
2023-02-28T13:12:50.679Z,1.98
2023-02-28T13:15:25.325Z,2.12
2023-02-28T13:17:55.574Z,2.09
2023-02-28T13:20:26.207Z,2.02
2023-02-28T13:22:55.761Z,2.10
2023-02-28T13:25:54.361Z,1.98
2023-02-28T13:29:05.507Z,1.83
2023-02-28T13:31:35.307Z,1.69
2023-02-28T13:34:18.356Z,1.73
2023-02-28T13:36:46.324Z,1.61
2023-02-28T13:39:50.051Z,1.80
2023-02-28T13:42:38.093Z,1.78
2023-02-28T13:45:39.241Z,2.02
2023-02-28T13:48:19.801Z,1.87
2023-02-28T13:50:48.340Z,1.66
2023-02-28T13:53:53.662Z,1.94
2023-02-28T13:56:35.894Z,1.79
2023-02-28T13:59:08.326Z,1.75
2023-02-28T14:01:44.720Z,1.82
2023-02-28T14:04:51.409Z,1.55
2023-02-28T14:07:23.824Z,1.54
2023-02-28T14:09:59.361Z,2.06
2023-02-28T14:12:58.858Z,1.90
2023-02-28T14:15:48.154Z,1.89
2023-02-28T14:18:24.364Z,1.94
2023-02-28T14:21:00.299Z,1.91
2023-02-28T14:23:59.514Z,1.80
2023-02-28T14:27:00.759Z,1.93
2023-02-28T14:29:58.086Z,1.51
2023-02-28T14:32:32.250Z,1.59
2023-02-28T14:35:12.680Z,1.70
2023-02-28T14:37:44.504Z,1.61
2023-02-28T14:40:19.119Z,1.69
2023-02-28T14:42:56.653Z,1.69
2023-02-28T14:45:25.232Z,1.84
2023-02-28T14:47:54.311Z,1.45
2023-02-28T14:50:24.554Z,1.51
2023-02-28T14:52:57.090Z,1.54
2023-02-28T14:55:26.879Z,1.60
2023-02-28T14:57:56.221Z,1.51
2023-02-28T15:00:28.149Z,1.39
2023-02-28T15:02:57.688Z,1.43
2023-02-28T15:05:29.528Z,1.44
2023-02-28T15:08:07.745Z,1.53
2023-02-28T15:10:36.505Z,1.54
2023-02-28T15:13:08.122Z,1.56
2023-02-28T15:16:00.917Z,1.49
2023-02-28T15:18:36.110Z,1.55
2023-02-28T15:21:07.510Z,1.59
2023-02-28T15:23:38.828Z,1.49
2023-02-28T15:26:07.761Z,1.59
2023-02-28T15:28:35.628Z,1.59
2023-02-28T15:31:05.331Z,1.72
2023-02-28T15:33:34.869Z,1.59
2023-02-28T15:36:08.307Z,1.56
2023-02-28T15:38:38.322Z,1.76
2023-02-28T15:41:09.153Z,1.56
2023-02-28T15:43:38.722Z,1.63
2023-02-28T15:46:08.636Z,1.49
2023-02-28T15:48:39.035Z,1.57
2023-02-28T15:51:10.235Z,1.46
2023-02-28T15:53:46.027Z,1.47
2023-02-28T15:56:24.053Z,1.61
2023-02-28T15:58:55.169Z,1.53
2023-02-28T16:01:27.366Z,1.63
2023-02-28T16:03:57.259Z,1.38
2023-02-28T16:06:43.081Z,1.65
2023-02-28T16:09:14.699Z,1.74
2023-02-28T16:11:46.702Z,1.54
2023-02-28T16:14:17.051Z,1.63
2023-02-28T16:16:46.429Z,1.45
2023-02-28T16:19:14.309Z,1.41
2023-02-28T16:21:42.567Z,1.42
2023-02-28T16:24:10.315Z,1.55
2023-02-28T16:26:41.604Z,1.54
2023-02-28T16:29:13.905Z,1.50
2023-02-28T16:31:41.759Z,1.41
2023-02-28T16:34:09.968Z,1.48
2023-02-28T16:36:37.708Z,1.53
2023-02-28T16:39:05.976Z,1.49
2023-02-28T16:41:33.789Z,1.46
2023-02-28T16:44:02.988Z,1.48
2023-02-28T16:46:35.310Z,1.48
2023-02-28T16:49:03.156Z,1.33
2023-02-28T16:51:33.438Z,1.39
2023-02-28T16:54:02.044Z,1.43
2023-02-28T16:56:29.817Z,1.37
2023-02-28T16:59:01.326Z,1.52
2023-02-28T17:01:31.249Z,1.41
2023-02-28T17:03:59.621Z,1.37
2023-02-28T17:06:29.956Z,1.37
2023-02-28T17:08:58.642Z,1.41
2023-02-28T17:11:27.488Z,1.50
2023-02-28T17:13:56.284Z,1.61
2023-02-28T17:16:30.128Z,1.55
2023-02-28T17:19:01.586Z,1.62
2023-02-28T17:21:30.065Z,1.40
2023-02-28T17:23:58.044Z,1.41
2023-02-28T17:26:26.845Z,1.51
2023-02-28T17:28:56.795Z,1.52
2023-02-28T17:31:24.800Z,1.48
2023-02-28T17:33:52.812Z,1.58
2023-02-28T17:36:25.457Z,1.48
2023-02-28T17:38:54.120Z,1.45
2023-02-28T17:41:22.071Z,1.46
2023-02-28T17:43:51.261Z,1.52
2023-02-28T17:46:21.625Z,1.49
2023-02-28T17:48:49.928Z,1.55
2023-02-28T17:51:18.712Z,1.37
2023-02-28T17:53:48.007Z,1.46
2023-02-28T17:56:18.355Z,1.45
2023-02-28T17:58:46.624Z,1.33
2023-02-28T18:01:14.660Z,1.46
2023-02-28T18:03:42.780Z,1.32
2023-02-28T18:06:18.864Z,1.37
2023-02-28T18:08:48.112Z,1.39
2023-02-28T18:11:22.147Z,1.37
2023-02-28T18:13:51.485Z,1.36
2023-02-28T18:16:20.324Z,1.38
2023-02-28T18:18:48.410Z,1.31
2023-02-28T18:21:17.581Z,1.26
2023-02-28T18:23:48.892Z,1.28
2023-02-28T18:26:17.857Z,1.36
2023-02-28T18:28:46.056Z,1.22
2023-02-28T18:31:16.574Z,1.21
2023-02-28T18:33:44.763Z,1.23
2023-02-28T18:36:12.767Z,1.07
2023-02-28T18:38:40.972Z,1.13
2023-02-28T18:41:10.529Z,1.19
2023-02-28T18:43:39.542Z,1.17
2023-02-28T18:46:08.570Z,1.12
2023-02-28T18:48:37.094Z,1.14
2023-02-28T18:51:08.738Z,1.21
2023-02-28T18:53:37.232Z,1.17
2023-02-28T18:56:06.528Z,1.23
2023-02-28T18:58:36.088Z,1.23
2023-02-28T19:01:05.639Z,1.13
2023-02-28T19:03:33.475Z,1.05
2023-02-28T19:06:01.998Z,1.16
2023-02-28T19:08:29.813Z,1.12
2023-02-28T19:10:57.618Z,1.24
2023-02-28T19:13:25.471Z,1.12
2023-02-28T19:16:02.562Z,1.16
2023-02-28T19:18:30.562Z,1.12
2023-02-28T19:20:58.480Z,1.17
2023-02-28T19:23:26.494Z,1.12
2023-02-28T19:25:55.836Z,1.05
2023-02-28T19:28:24.089Z,1.04
2023-02-28T19:30:52.995Z,1.07
2023-02-28T19:33:22.459Z,1.05
2023-02-28T19:35:50.436Z,1.07
2023-02-28T19:38:18.204Z,1.13
2023-02-28T19:40:46.408Z,1.02
2023-02-28T19:43:14.231Z,0.92
2023-02-28T19:45:42.008Z,0.92
2023-02-28T19:48:09.962Z,0.93
2023-02-28T19:50:41.770Z,0.99
2023-02-28T19:53:09.580Z,0.86
2023-02-28T19:55:39.216Z,0.89
2023-02-28T19:58:07.340Z,0.90
2023-02-28T20:00:35.093Z,0.85
2023-02-28T20:03:02.830Z,0.91
2023-02-28T20:05:30.573Z,0.88
2023-02-28T20:07:59.825Z,0.87
2023-02-28T20:10:27.694Z,0.89
2023-02-28T20:12:55.537Z,0.82
2023-02-28T20:15:23.634Z,0.81
2023-02-28T20:17:51.383Z,0.86
2023-02-28T20:20:19.757Z,0.70
2023-02-28T20:22:49.145Z,0.74
2023-02-28T20:25:18.624Z,0.71
2023-02-28T20:27:46.387Z,0.81
2023-02-28T20:30:14.326Z,0.78
2023-02-28T20:32:42.083Z,0.84
2023-02-28T20:35:11.587Z,0.74
2023-02-28T20:37:39.820Z,0.68
2023-02-28T20:40:10.084Z,0.54
2023-02-28T20:42:39.196Z,0.40
2023-02-28T20:45:08.343Z,0.40
2023-02-28T20:47:36.159Z,0.31
2023-02-28T20:50:04.140Z,0.29
2023-02-28T20:52:31.909Z,0.32
2023-02-28T20:54:59.643Z,0.35
2023-02-28T20:57:30.211Z,0.35
2023-02-28T20:59:59.347Z,0.30
2023-02-28T21:02:27.217Z,0.25
2023-02-28T21:04:55.109Z,0.39
2023-02-28T21:07:22.860Z,0.30
2023-02-28T21:09:50.909Z,0.27
2023-02-28T21:12:19.119Z,0.31
2023-02-28T21:14:47.092Z,0.40
2023-02-28T21:17:16.242Z,0.40
2023-02-28T21:19:43.959Z,0.35
2023-02-28T21:22:12.339Z,0.32
2023-02-28T21:24:40.301Z,0.27
2023-02-28T21:27:08.192Z,0.28
2023-02-28T21:29:36.015Z,0.17
2023-02-28T21:32:03.844Z,0.21
2023-02-28T21:34:33.366Z,0.28
2023-02-28T21:37:01.111Z,0.37
2023-02-28T21:39:30.266Z,0.41
2023-02-28T21:42:03.921Z,0.34
2023-02-28T21:44:32.502Z,0.39
2023-02-28T21:47:03.428Z,0.32
2023-02-28T21:49:32.862Z,0.41
2023-02-28T21:52:00.654Z,0.54
2023-02-28T21:54:28.480Z,0.54
2023-02-28T21:56:57.094Z,0.52
2023-02-28T21:59:24.925Z,0.43
2023-02-28T22:01:54.939Z,0.47
2023-02-28T22:04:23.185Z,0.46
2023-02-28T22:06:54.202Z,0.46
2023-02-28T22:09:22.516Z,0.62
2023-02-28T22:11:50.831Z,0.58
2023-02-28T22:14:19.096Z,0.66
2023-02-28T22:16:52.639Z,0.73
2023-02-28T22:19:21.790Z,0.75
2023-02-28T22:21:50.281Z,0.69
2023-02-28T22:24:23.278Z,0.58
2023-02-28T22:26:51.119Z,0.65
2023-02-28T22:29:18.954Z,0.76
2023-02-28T22:31:47.009Z,0.74
2023-02-28T22:34:14.927Z,0.72
2023-02-28T22:36:43.870Z,0.64
2023-02-28T22:39:12.035Z,0.65
2023-02-28T22:41:41.205Z,0.76
2023-02-28T22:44:09.093Z,0.61
2023-02-28T22:46:37.796Z,0.60
2023-02-28T22:49:07.014Z,0.63
2023-02-28T22:51:36.179Z,0.70
2023-02-28T22:54:04.494Z,0.68
2023-02-28T22:56:32.811Z,0.65
2023-02-28T22:59:02.773Z,0.64
2023-02-28T23:01:32.226Z,0.61
2023-02-28T23:04:00.798Z,0.78
2023-02-28T23:06:31.170Z,0.65
2023-02-28T23:09:01.542Z,0.75
2023-02-28T23:11:31.473Z,0.69
2023-02-28T23:13:59.523Z,0.79
2023-02-28T23:16:31.697Z,0.72
2023-02-28T23:19:01.788Z,0.77
2023-02-28T23:21:30.831Z,0.71
2023-02-28T23:23:58.710Z,0.62
2023-02-28T23:26:26.591Z,0.68
2023-02-28T23:28:54.496Z,0.64
2023-02-28T23:31:22.544Z,0.69
2023-02-28T23:33:52.157Z,0.72
2023-02-28T23:36:20.318Z,0.75
2023-02-28T23:38:49.887Z,0.71
2023-02-28T23:41:18.920Z,0.66
2023-02-28T23:43:47.177Z,0.77
2023-02-28T23:46:15.893Z,0.84
2023-02-28T23:48:44.598Z,0.74
2023-02-28T23:51:16.897Z,0.74
2023-02-28T23:53:46.606Z,0.76
2023-02-28T23:56:16.608Z,0.65
2023-02-28T23:58:45.863Z,0.80
